sensor_id;sensor_type;location;lat;lon;timestamp;pressure;altitude;pressure_sealevel;temperature;humidity
11124;BME280;5616;42.692;23.312;2023-04-28T00:00:51;95346.03;;;7.80;53.46
11124;BME280;5616;42.692;23.312;2023-04-28T00:03:18;95348.72;;;7.62;54.29
11124;BME280;5616;42.692;23.312;2023-04-28T00:05:45;95354.19;;;7.67;54.37
11124;BME280;5616;42.692;23.312;2023-04-28T00:08:13;95350.16;;;7.65;54.16
11124;BME280;5616;42.692;23.312;2023-04-28T00:10:40;95359.06;;;7.78;53.62
11124;BME280;5616;42.692;23.312;2023-04-28T00:13:08;95348.59;;;7.64;54.27
11124;BME280;5616;42.692;23.312;2023-04-28T00:15:36;95352.63;;;7.74;53.61
11124;BME280;5616;42.692;23.312;2023-04-28T00:18:02;95352.25;;;7.61;54.33
11124;BME280;5616;42.692;23.312;2023-04-28T00:20:29;95352.22;;;7.45;54.67
11124;BME280;5616;42.692;23.312;2023-04-28T00:22:56;95356.59;;;7.27;55.69
11124;BME280;5616;42.692;23.312;2023-04-28T00:25:23;95362.97;;;7.49;55.23
11124;BME280;5616;42.692;23.312;2023-04-28T00:27:49;95361.03;;;7.43;54.92
11124;BME280;5616;42.692;23.312;2023-04-28T00:30:18;95355.47;;;7.63;54.67
11124;BME280;5616;42.692;23.312;2023-04-28T00:32:45;95351.16;;;7.64;54.38
11124;BME280;5616;42.692;23.312;2023-04-28T00:35:11;95365.84;;;7.46;54.92
11124;BME280;5616;42.692;23.312;2023-04-28T00:37:38;95363.56;;;7.34;55.42
11124;BME280;5616;42.692;23.312;2023-04-28T00:40:06;95366.59;;;7.38;54.91
11124;BME280;5616;42.692;23.312;2023-04-28T00:42:33;95367.59;;;7.11;55.86
11124;BME280;5616;42.692;23.312;2023-04-28T00:45:00;95377.59;;;7.22;56.57
11124;BME280;5616;42.692;23.312;2023-04-28T00:47:31;95371.22;;;7.26;56.41
11124;BME280;5616;42.692;23.312;2023-04-28T00:49:59;95370.16;;;7.11;56.58
11124;BME280;5616;42.692;23.312;2023-04-28T00:52:26;95374.28;;;7.30;55.65
11124;BME280;5616;42.692;23.312;2023-04-28T00:54:54;95365.91;;;7.28;55.08
11124;BME280;5616;42.692;23.312;2023-04-28T00:57:21;95375.97;;;7.13;57.01
11124;BME280;5616;42.692;23.312;2023-04-28T00:59:48;95368.06;;;7.07;55.79
11124;BME280;5616;42.692;23.312;2023-04-28T01:02:17;95373.53;;;7.12;56.55
11124;BME280;5616;42.692;23.312;2023-04-28T01:04:46;95377.63;;;6.97;56.68
11124;BME280;5616;42.692;23.312;2023-04-28T01:07:14;95375.25;;;6.77;57.84
11124;BME280;5616;42.692;23.312;2023-04-28T01:09:41;95378.53;;;6.88;56.93
11124;BME280;5616;42.692;23.312;2023-04-28T01:12:10;95379.34;;;6.88;57.13
11124;BME280;5616;42.692;23.312;2023-04-28T01:14:49;95383.13;;;6.76;57.21
11124;BME280;5616;42.692;23.312;2023-04-28T01:17:16;95380.56;;;6.76;56.98
11124;BME280;5616;42.692;23.312;2023-04-28T01:19:43;95382.81;;;6.79;57.97
11124;BME280;5616;42.692;23.312;2023-04-28T01:22:11;95387.38;;;6.93;58.14
11124;BME280;5616;42.692;23.312;2023-04-28T01:24:43;95388.19;;;6.94;57.50
11124;BME280;5616;42.692;23.312;2023-04-28T01:27:12;95382.47;;;6.74;57.68
11124;BME280;5616;42.692;23.312;2023-04-28T01:29:40;95392.00;;;6.64;57.62
11124;BME280;5616;42.692;23.312;2023-04-28T01:32:07;95380.56;;;6.76;57.11
11124;BME280;5616;42.692;23.312;2023-04-28T01:34:34;95388.31;;;6.66;57.33
11124;BME280;5616;42.692;23.312;2023-04-28T01:37:04;95389.88;;;6.59;57.90
11124;BME280;5616;42.692;23.312;2023-04-28T01:39:31;95387.25;;;6.69;57.49
11124;BME280;5616;42.692;23.312;2023-04-28T01:42:03;95387.97;;;6.61;56.98
11124;BME280;5616;42.692;23.312;2023-04-28T01:44:30;95387.09;;;6.70;57.53
11124;BME280;5616;42.692;23.312;2023-04-28T01:46:57;95383.81;;;6.86;56.58
11124;BME280;5616;42.692;23.312;2023-04-28T01:49:23;95390.13;;;6.92;56.49
11124;BME280;5616;42.692;23.312;2023-04-28T01:51:50;95384.38;;;6.98;56.56
11124;BME280;5616;42.692;23.312;2023-04-28T01:54:17;95389.31;;;6.91;56.55
11124;BME280;5616;42.692;23.312;2023-04-28T01:56:44;95381.56;;;6.83;56.42
11124;BME280;5616;42.692;23.312;2023-04-28T01:59:15;95391.97;;;6.82;56.40
11124;BME280;5616;42.692;23.312;2023-04-28T02:01:43;95386.97;;;6.80;56.14
11124;BME280;5616;42.692;23.312;2023-04-28T02:04:10;95389.69;;;6.53;56.92
11124;BME280;5616;42.692;23.312;2023-04-28T02:06:37;95390.03;;;6.58;56.68
11124;BME280;5616;42.692;23.312;2023-04-28T02:09:04;95390.91;;;6.49;56.83
11124;BME280;5616;42.692;23.312;2023-04-28T02:11:32;95396.94;;;6.57;57.36
11124;BME280;5616;42.692;23.312;2023-04-28T02:13:59;95394.81;;;6.53;57.25
11124;BME280;5616;42.692;23.312;2023-04-28T02:16:27;95389.34;;;6.56;56.94
11124;BME280;5616;42.692;23.312;2023-04-28T02:18:54;95404.03;;;6.46;57.87
11124;BME280;5616;42.692;23.312;2023-04-28T02:21:21;95399.06;;;6.27;58.41
11124;BME280;5616;42.692;23.312;2023-04-28T02:23:47;95399.66;;;6.21;59.12
11124;BME280;5616;42.692;23.312;2023-04-28T02:26:14;95408.88;;;6.31;58.65
11124;BME280;5616;42.692;23.312;2023-04-28T02:28:41;95404.50;;;6.24;58.47
11124;BME280;5616;42.692;23.312;2023-04-28T02:31:09;95403.69;;;6.23;58.41
11124;BME280;5616;42.692;23.312;2023-04-28T02:33:39;95404.41;;;6.15;58.56
11124;BME280;5616;42.692;23.312;2023-04-28T02:36:08;95402.94;;;6.31;57.98
11124;BME280;5616;42.692;23.312;2023-04-28T02:38:35;95404.28;;;6.35;58.86
11124;BME280;5616;42.692;23.312;2023-04-28T02:41:03;95410.19;;;6.35;57.89
11124;BME280;5616;42.692;23.312;2023-04-28T02:43:30;95416.50;;;6.41;57.99
11124;BME280;5616;42.692;23.312;2023-04-28T02:45:57;95415.25;;;6.45;58.54
11124;BME280;5616;42.692;23.312;2023-04-28T02:48:24;95390.66;;;6.34;58.07
11124;BME280;5616;42.692;23.312;2023-04-28T02:50:53;95417.00;;;6.62;57.10
11124;BME280;5616;42.692;23.312;2023-04-28T02:53:21;95427.63;;;6.67;56.97
11124;BME280;5616;42.692;23.312;2023-04-28T02:55:48;95413.63;;;6.79;56.94
11124;BME280;5616;42.692;23.312;2023-04-28T02:58:15;95410.25;;;6.78;57.41
11124;BME280;5616;42.692;23.312;2023-04-28T03:00:42;95418.47;;;6.82;56.78
11124;BME280;5616;42.692;23.312;2023-04-28T03:03:09;95425.06;;;6.85;56.80
11124;BME280;5616;42.692;23.312;2023-04-28T03:05:36;95428.25;;;6.87;56.72
11124;BME280;5616;42.692;23.312;2023-04-28T03:08:05;95433.56;;;6.67;57.37
11124;BME280;5616;42.692;23.312;2023-04-28T03:10:32;95424.81;;;6.78;56.70
11124;BME280;5616;42.692;23.312;2023-04-28T03:13:00;95433.84;;;6.64;57.04
11124;BME280;5616;42.692;23.312;2023-04-28T03:15:28;95436.00;;;6.69;56.87
11124;BME280;5616;42.692;23.312;2023-04-28T03:17:55;95432.22;;;6.81;56.58
11124;BME280;5616;42.692;23.312;2023-04-28T03:20:22;95429.84;;;6.88;55.62
11124;BME280;5616;42.692;23.312;2023-04-28T03:22:49;95435.81;;;6.88;56.31
11124;BME280;5616;42.692;23.312;2023-04-28T03:25:18;95437.44;;;6.89;55.87
11124;BME280;5616;42.692;23.312;2023-04-28T03:27:48;95448.56;;;6.80;56.17
11124;BME280;5616;42.692;23.312;2023-04-28T03:30:15;95456.63;;;6.85;56.22
11124;BME280;5616;42.692;23.312;2023-04-28T03:32:41;95455.56;;;6.52;56.87
11124;BME280;5616;42.692;23.312;2023-04-28T03:35:08;95456.13;;;6.64;56.11
11124;BME280;5616;42.692;23.312;2023-04-28T03:37:36;95463.13;;;6.71;56.51
11124;BME280;5616;42.692;23.312;2023-04-28T03:40:05;95463.78;;;6.73;56.52
11124;BME280;5616;42.692;23.312;2023-04-28T03:42:48;95463.84;;;6.82;55.79
11124;BME280;5616;42.692;23.312;2023-04-28T03:45:22;95466.91;;;6.85;56.50
11124;BME280;5616;42.692;23.312;2023-04-28T03:47:49;95472.19;;;6.84;57.35
11124;BME280;5616;42.692;23.312;2023-04-28T03:50:16;95472.53;;;6.89;56.28
11124;BME280;5616;42.692;23.312;2023-04-28T03:52:43;95485.03;;;6.84;55.74
11124;BME280;5616;42.692;23.312;2023-04-28T03:55:11;95481.50;;;6.85;56.24
11124;BME280;5616;42.692;23.312;2023-04-28T03:57:37;95485.19;;;6.82;55.12
11124;BME280;5616;42.692;23.312;2023-04-28T04:00:07;95490.47;;;6.63;55.93
11124;BME280;5616;42.692;23.312;2023-04-28T04:02:40;95485.91;;;6.74;55.50
11124;BME280;5616;42.692;23.312;2023-04-28T04:05:07;95498.88;;;6.91;54.98
11124;BME280;5616;42.692;23.312;2023-04-28T04:07:34;95499.09;;;6.97;54.62
11124;BME280;5616;42.692;23.312;2023-04-28T04:10:01;95502.97;;;7.01;55.45
11124;BME280;5616;42.692;23.312;2023-04-28T04:12:28;95501.03;;;7.03;54.14
11124;BME280;5616;42.692;23.312;2023-04-28T04:14:55;95503.75;;;7.19;54.42
11124;BME280;5616;42.692;23.312;2023-04-28T04:17:23;95498.25;;;7.14;53.97
11124;BME280;5616;42.692;23.312;2023-04-28T04:19:50;95505.41;;;7.03;54.71
11124;BME280;5616;42.692;23.312;2023-04-28T04:22:17;95500.41;;;6.84;55.07
11124;BME280;5616;42.692;23.312;2023-04-28T04:24:44;95508.56;;;6.97;54.84
11124;BME280;5616;42.692;23.312;2023-04-28T04:27:11;95510.25;;;7.06;55.16
11124;BME280;5616;42.692;23.312;2023-04-28T04:29:40;95517.78;;;7.07;55.41
11124;BME280;5616;42.692;23.312;2023-04-28T04:32:11;95524.53;;;7.08;54.36
11124;BME280;5616;42.692;23.312;2023-04-28T04:34:40;95521.22;;;7.16;53.53
11124;BME280;5616;42.692;23.312;2023-04-28T04:37:08;95517.97;;;7.31;53.34
11124;BME280;5616;42.692;23.312;2023-04-28T04:39:41;95527.34;;;7.40;53.26
11124;BME280;5616;42.692;23.312;2023-04-28T04:42:08;95523.16;;;7.39;53.36
11124;BME280;5616;42.692;23.312;2023-04-28T04:44:45;95522.25;;;7.49;52.36
11124;BME280;5616;42.692;23.312;2023-04-28T04:47:25;95527.56;;;7.47;51.35
11124;BME280;5616;42.692;23.312;2023-04-28T04:49:54;95526.28;;;7.51;51.87
11124;BME280;5616;42.692;23.312;2023-04-28T04:52:21;95541.31;;;7.64;51.71
11124;BME280;5616;42.692;23.312;2023-04-28T04:54:49;95538.78;;;7.72;52.08
11124;BME280;5616;42.692;23.312;2023-04-28T04:57:17;95536.97;;;7.64;52.10
11124;BME280;5616;42.692;23.312;2023-04-28T05:00:19;95536.25;;;7.54;53.10
11124;BME280;5616;42.692;23.312;2023-04-28T05:02:46;95542.91;;;7.65;53.64
11124;BME280;5616;42.692;23.312;2023-04-28T05:05:17;95542.16;;;7.72;53.35
11124;BME280;5616;42.692;23.312;2023-04-28T05:07:45;95549.66;;;7.91;51.28
11124;BME280;5616;42.692;23.312;2023-04-28T05:10:12;95548.94;;;8.07;50.52
11124;BME280;5616;42.692;23.312;2023-04-28T05:12:39;95544.66;;;8.24;50.22
11124;BME280;5616;42.692;23.312;2023-04-28T05:15:06;95547.53;;;8.21;51.74
11124;BME280;5616;42.692;23.312;2023-04-28T05:17:37;95550.81;;;8.31;51.20
11124;BME280;5616;42.692;23.312;2023-04-28T05:20:04;95548.81;;;8.50;50.94
11124;BME280;5616;42.692;23.312;2023-04-28T05:22:32;95545.47;;;8.66;50.58
11124;BME280;5616;42.692;23.312;2023-04-28T05:24:59;95550.09;;;8.54;50.69
11124;BME280;5616;42.692;23.312;2023-04-28T05:27:26;95544.06;;;8.72;49.77
11124;BME280;5616;42.692;23.312;2023-04-28T05:29:53;95548.56;;;8.86;49.83
11124;BME280;5616;42.692;23.312;2023-04-28T05:32:20;95548.91;;;9.07;48.66
11124;BME280;5616;42.692;23.312;2023-04-28T05:34:46;95545.38;;;9.08;49.55
11124;BME280;5616;42.692;23.312;2023-04-28T05:37:13;95535.22;;;9.31;48.86
11124;BME280;5616;42.692;23.312;2023-04-28T05:39:44;95533.97;;;9.18;49.05
11124;BME280;5616;42.692;23.312;2023-04-28T05:42:11;95534.59;;;9.37;49.19
11124;BME280;5616;42.692;23.312;2023-04-28T05:44:38;95537.81;;;9.47;48.98
11124;BME280;5616;42.692;23.312;2023-04-28T05:47:05;95539.22;;;9.65;47.99
11124;BME280;5616;42.692;23.312;2023-04-28T05:49:33;95538.91;;;9.76;48.88
11124;BME280;5616;42.692;23.312;2023-04-28T05:52:03;95538.72;;;9.78;49.12
11124;BME280;5616;42.692;23.312;2023-04-28T05:54:29;95545.63;;;9.94;47.89
11124;BME280;5616;42.692;23.312;2023-04-28T05:57:00;95538.00;;;10.08;46.62
11124;BME280;5616;42.692;23.312;2023-04-28T05:59:28;95544.47;;;10.04;47.61
11124;BME280;5616;42.692;23.312;2023-04-28T06:01:56;95546.50;;;10.25;46.21
11124;BME280;5616;42.692;23.312;2023-04-28T06:04:23;95540.72;;;10.23;46.55
11124;BME280;5616;42.692;23.312;2023-04-28T06:06:50;95546.63;;;10.39;46.35
11124;BME280;5616;42.692;23.312;2023-04-28T06:09:17;95549.16;;;10.01;47.64
11124;BME280;5616;42.692;23.312;2023-04-28T06:11:44;95547.16;;;10.27;46.57
11124;BME280;5616;42.692;23.312;2023-04-28T06:14:12;95549.41;;;10.30;46.48
11124;BME280;5616;42.692;23.312;2023-04-28T06:16:40;95534.97;;;10.43;46.72
11124;BME280;5616;42.692;23.312;2023-04-28T06:19:07;95543.16;;;10.55;46.18
11124;BME280;5616;42.692;23.312;2023-04-28T06:21:35;95544.97;;;9.92;46.58
11124;BME280;5616;42.692;23.312;2023-04-28T06:24:02;95541.75;;;10.44;46.29
11124;BME280;5616;42.692;23.312;2023-04-28T06:26:29;95543.38;;;10.76;45.53
11124;BME280;5616;42.692;23.312;2023-04-28T06:28:56;95547.97;;;10.89;45.50
11124;BME280;5616;42.692;23.312;2023-04-28T06:31:24;95543.50;;;11.28;44.23
11124;BME280;5616;42.692;23.312;2023-04-28T06:33:52;95548.22;;;11.62;43.06
11124;BME280;5616;42.692;23.312;2023-04-28T06:36:21;95545.34;;;11.80;42.29
11124;BME280;5616;42.692;23.312;2023-04-28T06:38:48;95544.47;;;12.02;41.31
11124;BME280;5616;42.692;23.312;2023-04-28T06:41:15;95545.09;;;12.18;41.03
11124;BME280;5616;42.692;23.312;2023-04-28T06:43:46;95538.22;;;12.40;41.49
11124;BME280;5616;42.692;23.312;2023-04-28T06:46:17;95532.34;;;12.67;40.05
11124;BME280;5616;42.692;23.312;2023-04-28T06:48:45;95529.78;;;12.88;40.01
11124;BME280;5616;42.692;23.312;2023-04-28T06:51:15;95532.38;;;13.24;39.72
11124;BME280;5616;42.692;23.312;2023-04-28T06:53:42;95533.53;;;13.64;38.75
11124;BME280;5616;42.692;23.312;2023-04-28T06:56:09;95531.94;;;13.70;38.54
11124;BME280;5616;42.692;23.312;2023-04-28T06:58:35;95528.91;;;13.94;37.89
11124;BME280;5616;42.692;23.312;2023-04-28T07:01:02;95533.09;;;14.23;38.37
11124;BME280;5616;42.692;23.312;2023-04-28T07:03:30;95528.84;;;14.49;36.64
11124;BME280;5616;42.692;23.312;2023-04-28T07:05:58;95532.59;;;14.94;35.97
11124;BME280;5616;42.692;23.312;2023-04-28T07:08:25;95529.72;;;14.63;35.55
11124;BME280;5616;42.692;23.312;2023-04-28T07:10:52;95528.03;;;15.09;34.05
11124;BME280;5616;42.692;23.312;2023-04-28T07:13:18;95527.09;;;15.43;34.40
11124;BME280;5616;42.692;23.312;2023-04-28T07:15:45;95519.84;;;15.25;34.87
11124;BME280;5616;42.692;23.312;2023-04-28T07:18:12;95525.50;;;15.88;33.18
11124;BME280;5616;42.692;23.312;2023-04-28T07:20:39;95526.63;;;16.38;32.41
11124;BME280;5616;42.692;23.312;2023-04-28T07:23:07;95524.06;;;16.76;32.48
11124;BME280;5616;42.692;23.312;2023-04-28T07:25:34;95521.84;;;16.79;30.68
11124;BME280;5616;42.692;23.312;2023-04-28T07:28:02;95517.50;;;17.04;30.75
11124;BME280;5616;42.692;23.312;2023-04-28T07:30:29;95516.44;;;16.17;32.65
11124;BME280;5616;42.692;23.312;2023-04-28T07:32:56;95517.19;;;16.37;32.10
11124;BME280;5616;42.692;23.312;2023-04-28T07:35:23;95517.28;;;16.75;31.25
11124;BME280;5616;42.692;23.312;2023-04-28T07:37:50;95505.78;;;16.82;30.77
11124;BME280;5616;42.692;23.312;2023-04-28T07:40:19;95515.38;;;17.57;30.47
11124;BME280;5616;42.692;23.312;2023-04-28T07:42:46;95519.34;;;18.09;30.04
11124;BME280;5616;42.692;23.312;2023-04-28T07:45:13;95509.03;;;18.69;27.81
11124;BME280;5616;42.692;23.312;2023-04-28T07:47:40;95513.56;;;19.51;27.06
11124;BME280;5616;42.692;23.312;2023-04-28T07:50:08;95511.78;;;19.98;26.79
11124;BME280;5616;42.692;23.312;2023-04-28T07:52:34;95513.72;;;20.14;26.08
11124;BME280;5616;42.692;23.312;2023-04-28T07:55:01;95519.34;;;20.69;25.05
11124;BME280;5616;42.692;23.312;2023-04-28T07:57:30;95507.22;;;20.28;25.78
11124;BME280;5616;42.692;23.312;2023-04-28T07:59:57;95508.50;;;20.77;26.15
11124;BME280;5616;42.692;23.312;2023-04-28T08:02:23;95504.25;;;20.76;24.15
11124;BME280;5616;42.692;23.312;2023-04-28T08:04:51;95510.44;;;21.55;24.08
11124;BME280;5616;42.692;23.312;2023-04-28T08:07:19;95501.41;;;21.34;24.44
11124;BME280;5616;42.692;23.312;2023-04-28T08:09:46;95512.03;;;22.22;23.53
11124;BME280;5616;42.692;23.312;2023-04-28T08:12:12;95504.00;;;22.72;22.70
11124;BME280;5616;42.692;23.312;2023-04-28T08:14:41;95497.38;;;23.18;22.53
11124;BME280;5616;42.692;23.312;2023-04-28T08:17:08;95500.22;;;24.39;21.18
11124;BME280;5616;42.692;23.312;2023-04-28T08:19:35;95497.16;;;25.74;20.00
11124;BME280;5616;42.692;23.312;2023-04-28T08:22:01;95500.13;;;27.75;18.34
11124;BME280;5616;42.692;23.312;2023-04-28T08:24:31;95508.19;;;28.98;17.96
11124;BME280;5616;42.692;23.312;2023-04-28T08:27:00;95503.72;;;29.74;15.46
11124;BME280;5616;42.692;23.312;2023-04-28T08:29:27;95492.88;;;30.02;15.91
11124;BME280;5616;42.692;23.312;2023-04-28T08:31:55;95497.00;;;30.41;16.36
11124;BME280;5616;42.692;23.312;2023-04-28T08:34:22;95506.25;;;31.83;15.19
11124;BME280;5616;42.692;23.312;2023-04-28T08:36:50;95505.13;;;32.90;14.01
11124;BME280;5616;42.692;23.312;2023-04-28T08:39:17;95501.13;;;33.44;13.28
11124;BME280;5616;42.692;23.312;2023-04-28T08:41:45;95500.38;;;32.87;13.85
11124;BME280;5616;42.692;23.312;2023-04-28T08:44:11;95509.09;;;32.53;14.42
11124;BME280;5616;42.692;23.312;2023-04-28T08:46:39;95489.63;;;32.70;13.69
11124;BME280;5616;42.692;23.312;2023-04-28T08:49:12;95494.50;;;33.33;12.75
11124;BME280;5616;42.692;23.312;2023-04-28T08:51:43;95500.00;;;32.62;13.49
11124;BME280;5616;42.692;23.312;2023-04-28T08:54:13;95500.38;;;30.60;14.65
11124;BME280;5616;42.692;23.312;2023-04-28T08:56:41;95481.19;;;30.85;14.29
11124;BME280;5616;42.692;23.312;2023-04-28T08:59:10;95492.13;;;32.04;14.44
11124;BME280;5616;42.692;23.312;2023-04-28T09:01:38;95485.22;;;32.34;13.92
11124;BME280;5616;42.692;23.312;2023-04-28T09:04:04;95484.75;;;32.72;12.87
11124;BME280;5616;42.692;23.312;2023-04-28T09:06:34;95484.38;;;31.36;14.46
11124;BME280;5616;42.692;23.312;2023-04-28T09:09:17;95483.25;;;31.95;14.12
11124;BME280;5616;42.692;23.312;2023-04-28T09:11:50;95473.16;;;31.12;13.97
11124;BME280;5616;42.692;23.312;2023-04-28T09:14:17;95463.63;;;29.84;15.08
11124;BME280;5616;42.692;23.312;2023-04-28T09:16:44;95463.63;;;28.90;15.63
11124;BME280;5616;42.692;23.312;2023-04-28T09:19:11;95468.16;;;27.90;17.40
11124;BME280;5616;42.692;23.312;2023-04-28T09:21:50;95465.38;;;26.20;17.92
11124;BME280;5616;42.692;23.312;2023-04-28T09:24:28;95465.69;;;24.60;19.06
11124;BME280;5616;42.692;23.312;2023-04-28T09:26:55;95467.31;;;24.09;19.81
11124;BME280;5616;42.692;23.312;2023-04-28T09:29:22;95455.16;;;22.86;20.48
11124;BME280;5616;42.692;23.312;2023-04-28T09:31:49;95459.06;;;22.57;21.20
11124;BME280;5616;42.692;23.312;2023-04-28T09:34:17;95454.69;;;22.24;21.54
11124;BME280;5616;42.692;23.312;2023-04-28T09:36:45;95455.09;;;20.43;24.42
11124;BME280;5616;42.692;23.312;2023-04-28T09:39:12;95453.31;;;19.63;24.72
11124;BME280;5616;42.692;23.312;2023-04-28T09:41:41;95451.00;;;18.90;25.62
11124;BME280;5616;42.692;23.312;2023-04-28T09:44:12;95445.28;;;18.81;25.39
11124;BME280;5616;42.692;23.312;2023-04-28T09:46:39;95445.50;;;18.50;26.92
11124;BME280;5616;42.692;23.312;2023-04-28T09:49:06;95431.66;;;18.91;25.59
11124;BME280;5616;42.692;23.312;2023-04-28T09:51:33;95436.84;;;18.79;25.85
11124;BME280;5616;42.692;23.312;2023-04-28T09:54:02;95434.69;;;18.76;25.33
11124;BME280;5616;42.692;23.312;2023-04-28T09:56:31;95430.25;;;18.11;27.73
11124;BME280;5616;42.692;23.312;2023-04-28T09:59:00;95430.09;;;18.06;27.22
11124;BME280;5616;42.692;23.312;2023-04-28T10:01:31;95428.00;;;17.96;27.79
11124;BME280;5616;42.692;23.312;2023-04-28T10:03:59;95422.31;;;18.17;25.84
11124;BME280;5616;42.692;23.312;2023-04-28T10:06:27;95418.84;;;18.23;25.77
11124;BME280;5616;42.692;23.312;2023-04-28T10:08:54;95420.22;;;17.90;26.08
11124;BME280;5616;42.692;23.312;2023-04-28T10:11:24;95411.69;;;17.83;26.38
11124;BME280;5616;42.692;23.312;2023-04-28T10:13:53;95412.25;;;17.66;28.87
11124;BME280;5616;42.692;23.312;2023-04-28T10:16:21;95419.72;;;17.81;26.77
11124;BME280;5616;42.692;23.312;2023-04-28T10:18:49;95407.88;;;17.97;26.51
11124;BME280;5616;42.692;23.312;2023-04-28T10:21:18;95418.09;;;17.37;28.49
11124;BME280;5616;42.692;23.312;2023-04-28T10:24:08;95407.91;;;17.04;29.61
11124;BME280;5616;42.692;23.312;2023-04-28T10:27:05;95408.09;;;16.78;29.31
11124;BME280;5616;42.692;23.312;2023-04-28T10:29:33;95402.78;;;16.67;29.19
11124;BME280;5616;42.692;23.312;2023-04-28T10:32:17;95399.53;;;16.71;27.91
11124;BME280;5616;42.692;23.312;2023-04-28T10:34:44;95398.97;;;16.94;27.30
11124;BME280;5616;42.692;23.312;2023-04-28T10:37:11;95395.13;;;16.96;27.03
11124;BME280;5616;42.692;23.312;2023-04-28T10:39:39;95396.84;;;16.84;29.48
11124;BME280;5616;42.692;23.312;2023-04-28T10:46:00;95389.75;;;16.91;27.75
11124;BME280;5616;42.692;23.312;2023-04-28T10:51:32;95350.56;;;16.73;28.00
11124;BME280;5616;42.692;23.312;2023-04-28T10:54:15;95363.50;;;16.86;27.55
11124;BME280;5616;42.692;23.312;2023-04-28T10:57:20;95359.72;;;17.07;27.09
11124;BME280;5616;42.692;23.312;2023-04-28T10:59:48;95361.78;;;17.23;27.23
11124;BME280;5616;42.692;23.312;2023-04-28T11:02:39;95361.44;;;17.20;26.91
11124;BME280;5616;42.692;23.312;2023-04-28T11:05:18;95360.03;;;17.42;26.31
11124;BME280;5616;42.692;23.312;2023-04-28T11:11:11;95357.69;;;17.52;26.20
11124;BME280;5616;42.692;23.312;2023-04-28T11:13:38;95349.63;;;17.60;26.59
11124;BME280;5616;42.692;23.312;2023-04-28T11:16:06;95350.78;;;17.64;26.26
11124;BME280;5616;42.692;23.312;2023-04-28T11:18:48;95345.44;;;17.52;27.25
11124;BME280;5616;42.692;23.312;2023-04-28T11:21:15;95343.09;;;17.69;27.86
11124;BME280;5616;42.692;23.312;2023-04-28T11:23:42;95341.72;;;17.85;26.94
11124;BME280;5616;42.692;23.312;2023-04-28T11:26:09;95335.78;;;17.78;28.07
11124;BME280;5616;42.692;23.312;2023-04-28T11:28:45;95337.78;;;17.57;27.92
11124;BME280;5616;42.692;23.312;2023-04-28T11:31:13;95326.38;;;17.52;27.56
11124;BME280;5616;42.692;23.312;2023-04-28T11:33:45;95326.38;;;17.52;26.37
11124;BME280;5616;42.692;23.312;2023-04-28T11:36:22;95323.97;;;17.32;29.70
11124;BME280;5616;42.692;23.312;2023-04-28T11:38:49;95335.94;;;17.22;29.12
11124;BME280;5616;42.692;23.312;2023-04-28T11:41:16;95322.59;;;17.30;28.83
11124;BME280;5616;42.692;23.312;2023-04-28T11:43:43;95331.03;;;17.50;27.69
11124;BME280;5616;42.692;23.312;2023-04-28T11:46:15;95319.19;;;17.54;26.76
11124;BME280;5616;42.692;23.312;2023-04-28T11:48:42;95314.22;;;17.64;26.98
11124;BME280;5616;42.692;23.312;2023-04-28T11:51:32;95331.78;;;17.93;27.06
11124;BME280;5616;42.692;23.312;2023-04-28T11:53:59;95313.81;;;17.67;29.63
11124;BME280;5616;42.692;23.312;2023-04-28T11:56:26;95315.75;;;17.71;27.98
11124;BME280;5616;42.692;23.312;2023-04-28T11:59:03;95304.84;;;17.93;28.42
11124;BME280;5616;42.692;23.312;2023-04-28T12:01:31;95306.78;;;17.97;29.06
11124;BME280;5616;42.692;23.312;2023-04-28T12:03:58;95296.19;;;17.92;27.96
11124;BME280;5616;42.692;23.312;2023-04-28T12:06:27;95299.00;;;18.09;28.17
11124;BME280;5616;42.692;23.312;2023-04-28T12:08:54;95297.75;;;18.11;27.83
11124;BME280;5616;42.692;23.312;2023-04-28T12:11:22;95290.50;;;18.13;27.54
11124;BME280;5616;42.692;23.312;2023-04-28T12:14:05;95289.75;;;18.24;28.74
11124;BME280;5616;42.692;23.312;2023-04-28T12:16:37;95285.78;;;18.33;28.85
11124;BME280;5616;42.692;23.312;2023-04-28T12:19:07;95278.75;;;18.04;29.78
11124;BME280;5616;42.692;23.312;2023-04-28T12:21:37;95269.91;;;17.57;30.10
11124;BME280;5616;42.692;23.312;2023-04-28T12:24:15;95276.06;;;17.63;28.43
11124;BME280;5616;42.692;23.312;2023-04-28T12:26:42;95276.78;;;17.88;28.59
11124;BME280;5616;42.692;23.312;2023-04-28T12:29:09;95278.91;;;17.91;29.98
11124;BME280;5616;42.692;23.312;2023-04-28T12:31:49;95270.00;;;17.99;29.81
11124;BME280;5616;42.692;23.312;2023-04-28T12:34:17;95269.47;;;18.08;28.98
11124;BME280;5616;42.692;23.312;2023-04-28T12:36:45;95266.72;;;18.03;29.57
11124;BME280;5616;42.692;23.312;2023-04-28T12:39:13;95265.13;;;17.73;29.04
11124;BME280;5616;42.692;23.312;2023-04-28T12:41:41;95262.94;;;17.99;30.17
11124;BME280;5616;42.692;23.312;2023-04-28T12:44:09;95254.28;;;18.28;27.63
11124;BME280;5616;42.692;23.312;2023-04-28T12:46:35;95251.69;;;18.40;27.47
11124;BME280;5616;42.692;23.312;2023-04-28T12:49:02;95251.41;;;18.48;27.32
11124;BME280;5616;42.692;23.312;2023-04-28T12:51:29;95246.34;;;18.47;28.72
11124;BME280;5616;42.692;23.312;2023-04-28T12:53:58;95250.41;;;18.61;26.64
11124;BME280;5616;42.692;23.312;2023-04-28T12:56:25;95251.75;;;18.63;27.57
11124;BME280;5616;42.692;23.312;2023-04-28T12:58:52;95248.25;;;18.69;27.72
11124;BME280;5616;42.692;23.312;2023-04-28T13:01:18;95247.00;;;18.83;26.70
11124;BME280;5616;42.692;23.312;2023-04-28T13:03:45;95247.69;;;18.90;26.60
11124;BME280;5616;42.692;23.312;2023-04-28T13:06:12;95243.81;;;18.81;26.18
11124;BME280;5616;42.692;23.312;2023-04-28T13:08:39;95240.66;;;18.91;26.77
11124;BME280;5616;42.692;23.312;2023-04-28T13:11:08;95233.00;;;19.01;25.97
11124;BME280;5616;42.692;23.312;2023-04-28T13:13:35;95226.19;;;19.00;26.20
11124;BME280;5616;42.692;23.312;2023-04-28T13:16:02;95220.50;;;19.03;26.51
11124;BME280;5616;42.692;23.312;2023-04-28T13:18:30;95228.22;;;18.98;26.68
11124;BME280;5616;42.692;23.312;2023-04-28T13:20:57;95232.06;;;19.19;26.80
11124;BME280;5616;42.692;23.312;2023-04-28T13:23:24;95222.25;;;19.26;26.81